createdAt,value
2018-11-06T00:00:17.629Z,1003.30
2018-11-06T00:01:17.585Z,1003.33
2018-11-06T00:02:17.568Z,1003.39
2018-11-06T00:03:17.557Z,1003.36
2018-11-06T00:04:17.550Z,1003.35
2018-11-06T00:05:17.572Z,1003.37
2018-11-06T00:06:17.517Z,1003.41
2018-11-06T00:07:17.543Z,1003.46
2018-11-06T00:08:17.498Z,1003.42
2018-11-06T00:09:17.614Z,1003.43
2018-11-06T00:10:17.475Z,1003.35
2018-11-06T00:11:17.460Z,1003.34
2018-11-06T00:12:17.489Z,1003.34
2018-11-06T00:13:17.442Z,1003.31
2018-11-06T00:14:17.531Z,1003.39
2018-11-06T00:15:17.458Z,1003.38
2018-11-06T00:16:17.408Z,1003.40
2018-11-06T00:17:17.459Z,1003.35
2018-11-06T00:18:17.408Z,1003.38
2018-11-06T00:19:17.408Z,1003.42
2018-11-06T00:20:17.364Z,1003.35
2018-11-06T00:21:17.355Z,1003.35
2018-11-06T00:22:17.383Z,1003.34
2018-11-06T00:23:17.328Z,1003.35
2018-11-06T00:24:17.325Z,1003.31
2018-11-06T00:25:17.309Z,1003.33
2018-11-06T00:26:17.299Z,1003.36
2018-11-06T00:27:17.341Z,1003.36
2018-11-06T00:28:17.281Z,1003.29
2018-11-06T00:29:17.271Z,1003.35
2018-11-06T00:30:17.257Z,1003.35
2018-11-06T00:31:17.261Z,1003.35
2018-11-06T00:32:17.260Z,1003.28
2018-11-06T00:33:17.263Z,1003.35
2018-11-06T00:34:17.315Z,1003.29
2018-11-06T00:35:17.228Z,1003.30
2018-11-06T00:36:17.192Z,1003.29
2018-11-06T00:37:17.178Z,1003.31
2018-11-06T00:38:17.170Z,1003.35
2018-11-06T00:39:17.196Z,1003.37
2018-11-06T00:40:17.149Z,1003.34
2018-11-06T00:41:17.134Z,1003.29
2018-11-06T00:42:17.132Z,1003.38
2018-11-06T00:43:17.142Z,1003.36
2018-11-06T00:44:17.105Z,1003.30
2018-11-06T00:45:17.085Z,1003.33
2018-11-06T00:46:17.085Z,1003.28
2018-11-06T00:47:17.071Z,1003.37
2018-11-06T00:48:17.087Z,1003.26
2018-11-06T00:49:17.177Z,1003.25
2018-11-06T00:50:17.030Z,1003.24
2018-11-06T00:51:17.025Z,1003.23
2018-11-06T00:52:17.009Z,1003.24
2018-11-06T00:53:17.000Z,1003.25
2018-11-06T00:54:17.020Z,1003.25
2018-11-06T00:55:17.013Z,1003.16
2018-11-06T00:56:17.014Z,1003.19
2018-11-06T00:57:16.954Z,1003.21
2018-11-06T00:58:16.955Z,1003.15
2018-11-06T00:59:16.936Z,1003.16
2018-11-06T01:00:16.927Z,1003.20
2018-11-06T01:01:16.940Z,1003.19
2018-11-06T01:02:16.901Z,1003.21
2018-11-06T01:03:16.927Z,1003.22
2018-11-06T01:04:16.880Z,1003.26
2018-11-06T01:05:16.902Z,1003.23
2018-11-06T01:06:16.892Z,1003.28
2018-11-06T01:07:16.890Z,1003.24
2018-11-06T01:08:16.832Z,1003.23
2018-11-06T01:09:16.826Z,1003.28
2018-11-06T01:10:16.811Z,1003.31
2018-11-06T01:11:16.856Z,1003.31
2018-11-06T01:12:16.821Z,1003.36
2018-11-06T01:13:16.785Z,1003.30
2018-11-06T01:14:16.770Z,1003.32
2018-11-06T01:15:16.757Z,1003.32
2018-11-06T01:16:16.769Z,1003.34
2018-11-06T01:17:16.762Z,1003.31
2018-11-06T01:18:16.751Z,1003.34
2018-11-06T01:19:16.708Z,1003.37
2018-11-06T01:20:16.739Z,1003.36
2018-11-06T01:21:16.688Z,1003.38
2018-11-06T01:22:16.677Z,1003.34
2018-11-06T01:23:16.696Z,1003.34
2018-11-06T01:24:16.656Z,1003.34
2018-11-06T01:25:16.676Z,1003.34
2018-11-06T01:26:16.646Z,1003.38
2018-11-06T01:27:16.628Z,1003.41
2018-11-06T01:28:16.608Z,1003.38
2018-11-06T01:29:16.601Z,1003.42
2018-11-06T01:30:16.624Z,1003.37
2018-11-06T01:31:16.579Z,1003.45
2018-11-06T01:32:16.569Z,1003.42
2018-11-06T01:33:16.592Z,1003.45
2018-11-06T01:34:16.579Z,1003.41
2018-11-06T01:35:16.532Z,1003.41
2018-11-06T01:36:16.532Z,1003.41
2018-11-06T01:37:16.514Z,1003.39
2018-11-06T01:38:16.552Z,1003.39
2018-11-06T01:39:16.522Z,1003.37
2018-11-06T01:40:16.510Z,1003.45
2018-11-06T01:41:16.477Z,1003.41
2018-11-06T01:42:16.473Z,1003.37
2018-11-06T01:43:16.445Z,1003.28
2018-11-06T01:44:16.481Z,1003.29
2018-11-06T01:45:16.473Z,1003.25
2018-11-06T01:46:16.412Z,1003.31
2018-11-06T01:47:16.404Z,1003.26
2018-11-06T01:48:16.399Z,1003.29
2018-11-06T01:49:16.457Z,1003.32
2018-11-06T01:50:16.378Z,1003.27
2018-11-06T01:51:16.364Z,1003.31
2018-11-06T01:52:16.352Z,1003.26
2018-11-06T01:53:16.335Z,1003.31
2018-11-06T01:54:16.364Z,1003.35
2018-11-06T01:55:16.315Z,1003.26
2018-11-06T01:56:16.306Z,1003.28
2018-11-06T01:57:16.294Z,1003.24
2018-11-06T01:58:16.281Z,1003.18
2018-11-06T01:59:16.304Z,1003.19
2018-11-06T02:00:16.297Z,1003.24
2018-11-06T02:01:16.247Z,1003.22
2018-11-06T02:02:16.235Z,1003.20
2018-11-06T02:03:16.252Z,1003.24
2018-11-06T02:04:16.234Z,1003.20
2018-11-06T02:05:16.204Z,1003.21
2018-11-06T02:06:16.215Z,1003.12
2018-11-06T02:07:16.190Z,1003.11
2018-11-06T02:08:16.195Z,1003.18
2018-11-06T02:09:16.169Z,1003.11
2018-11-06T02:10:16.148Z,1003.17
2018-11-06T02:11:16.144Z,1003.17
2018-11-06T02:12:16.154Z,1003.19
2018-11-06T02:13:16.112Z,1003.19
2018-11-06T02:14:16.110Z,1003.17
2018-11-06T02:15:16.100Z,1003.15
2018-11-06T02:16:16.082Z,1003.10
2018-11-06T02:17:16.121Z,1003.10
2018-11-06T02:18:16.061Z,1003.12
2018-11-06T02:19:16.048Z,1003.08
2018-11-06T02:20:16.036Z,1003.17
2018-11-06T02:21:16.030Z,1003.08
2018-11-06T02:22:16.106Z,1003.12
2018-11-06T02:23:16.036Z,1003.09
2018-11-06T02:24:15.992Z,1003.08
2018-11-06T02:25:16.020Z,1003.05
2018-11-06T02:26:16.012Z,1003.02
2018-11-06T02:27:15.956Z,1003.06
2018-11-06T02:28:15.950Z,1002.99
2018-11-06T02:29:15.966Z,1003.06
2018-11-06T02:30:15.935Z,1003.05
2018-11-06T02:31:15.918Z,1003.05
2018-11-06T02:32:15.923Z,1003.01
2018-11-06T02:33:15.941Z,1003.00
2018-11-06T02:34:15.895Z,1002.97
2018-11-06T02:35:15.875Z,1002.99
2018-11-06T02:36:15.863Z,1002.93
2018-11-06T02:37:15.849Z,1002.96
2018-11-06T02:38:15.862Z,1002.91
2018-11-06T02:39:15.829Z,1002.90
2018-11-06T02:40:15.828Z,1002.94
2018-11-06T02:41:15.841Z,1002.86
2018-11-06T02:42:15.793Z,1002.91
2018-11-06T02:43:15.819Z,1002.85
2018-11-06T02:44:15.771Z,1002.83
2018-11-06T02:45:15.758Z,1002.85
2018-11-06T02:46:15.847Z,1002.84
2018-11-06T02:47:15.742Z,1002.84
2018-11-06T02:48:15.760Z,1002.83
2018-11-06T02:49:15.714Z,1002.83
2018-11-06T02:50:15.743Z,1002.83
2018-11-06T02:51:15.698Z,1002.80
2018-11-06T02:52:15.688Z,1002.86
2018-11-06T02:53:15.671Z,1002.87
2018-11-06T02:54:15.690Z,1002.89
2018-11-06T02:55:15.649Z,1002.89
2018-11-06T02:56:15.658Z,1002.87
2018-11-06T02:57:15.628Z,1002.86
2018-11-06T02:58:15.617Z,1002.85
2018-11-06T02:59:15.613Z,1002.83
2018-11-06T03:00:15.590Z,1002.82
2018-11-06T03:01:15.628Z,1002.81
2018-11-06T03:02:15.576Z,1002.83
2018-11-06T03:03:15.565Z,1002.74
2018-11-06T03:04:15.578Z,1002.81
2018-11-06T03:05:15.561Z,1002.82
2018-11-06T03:06:15.564Z,1002.87
2018-11-06T03:07:15.516Z,1002.84
2018-11-06T03:08:15.509Z,1002.82
2018-11-06T03:09:15.498Z,1002.77
2018-11-06T03:10:15.577Z,1002.80
2018-11-06T03:11:15.506Z,1002.81
2018-11-06T03:12:15.460Z,1002.79
2018-11-06T03:13:15.449Z,1002.74
2018-11-06T03:14:15.471Z,1002.76
2018-11-06T03:15:15.428Z,1002.72
2018-11-06T03:16:15.448Z,1002.74
2018-11-06T03:17:15.433Z,1002.77
2018-11-06T03:18:15.458Z,1002.78
2018-11-06T03:19:15.415Z,1002.83
2018-11-06T03:20:15.375Z,1002.88
2018-11-06T03:21:15.369Z,1002.90
2018-11-06T03:22:15.362Z,1002.93
2018-11-06T03:23:15.378Z,1002.95
2018-11-06T03:24:15.334Z,1003.01
2018-11-06T03:25:15.324Z,1003.02
2018-11-06T03:26:15.311Z,1003.03
2018-11-06T03:27:15.301Z,1002.99
2018-11-06T03:28:15.322Z,1003.03
2018-11-06T03:29:15.277Z,1003.15
2018-11-06T03:30:15.274Z,1003.11
2018-11-06T03:31:15.264Z,1003.14
2018-11-06T03:32:15.253Z,1003.09
2018-11-06T03:33:15.277Z,1003.09
2018-11-06T03:34:15.228Z,1003.04
2018-11-06T03:35:15.213Z,1003.06
2018-11-06T03:36:15.202Z,1003.03
2018-11-06T03:37:15.188Z,1002.99
2018-11-06T03:38:15.226Z,1002.92
2018-11-06T03:39:15.167Z,1002.98
2018-11-06T03:40:15.156Z,1002.87
2018-11-06T03:41:15.155Z,1002.87
2018-11-06T03:42:15.167Z,1002.83
2018-11-06T03:43:15.152Z,1002.81
2018-11-06T03:44:15.150Z,1002.76
2018-11-06T03:45:15.142Z,1002.79
2018-11-06T03:46:15.091Z,1002.85
2018-11-06T03:47:15.134Z,1002.92
2018-11-06T03:48:15.067Z,1002.94
2018-11-06T03:49:15.068Z,1002.90
2018-11-06T03:50:15.090Z,1003.02
2018-11-06T03:51:15.045Z,1002.99
2018-11-06T03:52:15.036Z,1003.05
2018-11-06T03:53:15.017Z,1003.08
2018-11-06T03:54:15.034Z,1003.08
2018-11-06T03:55:14.999Z,1003.11
2018-11-06T03:56:15.045Z,1003.13
2018-11-06T03:57:14.970Z,1003.18
2018-11-06T03:58:15.047Z,1003.13
2018-11-06T03:59:14.992Z,1003.13
2018-11-06T04:00:14.938Z,1003.12
2018-11-06T04:01:14.999Z,1003.11
2018-11-06T04:02:14.931Z,1003.12
2018-11-06T04:03:14.901Z,1003.20
2018-11-06T04:04:14.900Z,1003.26
2018-11-06T04:05:14.889Z,1003.28
2018-11-06T04:06:14.906Z,1003.29
2018-11-06T04:07:14.867Z,1003.30
2018-11-06T04:08:14.876Z,1003.29
2018-11-06T04:09:14.873Z,1003.32
2018-11-06T04:10:14.833Z,1003.32
2018-11-06T04:11:14.850Z,1003.34
2018-11-06T04:12:15.418Z,1003.27
2018-11-06T04:13:14.794Z,1003.32
2018-11-06T04:14:15.418Z,1003.27
2018-11-06T04:15:14.823Z,1003.27
2018-11-06T04:16:14.758Z,1003.23
2018-11-06T04:17:14.750Z,1003.21
2018-11-06T04:18:14.739Z,1003.21
2018-11-06T04:19:14.737Z,1003.18
2018-11-06T04:20:14.751Z,1003.21
2018-11-06T04:21:14.702Z,1003.15
2018-11-06T04:22:15.421Z,1003.15
2018-11-06T04:23:14.681Z,1003.23
2018-11-06T04:24:14.668Z,1003.23
2018-11-06T04:25:14.704Z,1003.21
2018-11-06T04:26:14.644Z,1003.21
2018-11-06T04:27:14.673Z,1003.21
2018-11-06T04:28:14.627Z,1003.20
2018-11-06T04:29:14.616Z,1003.19
2018-11-06T04:30:14.605Z,1003.13
2018-11-06T04:31:14.595Z,1003.15
2018-11-06T04:32:14.612Z,1003.07
2018-11-06T04:33:14.570Z,1003.10
2018-11-06T04:34:14.556Z,1003.11
2018-11-06T04:35:14.547Z,1003.04
2018-11-06T04:36:14.533Z,1003.02
2018-11-06T04:37:14.556Z,1002.98
2018-11-06T04:38:14.658Z,1002.96
2018-11-06T04:39:14.502Z,1002.96
2018-11-06T04:40:14.493Z,1002.96
2018-11-06T04:41:14.494Z,1002.95
2018-11-06T04:42:14.493Z,1002.99
2018-11-06T04:43:14.458Z,1003.02
2018-11-06T04:44:14.444Z,1003.01
2018-11-06T04:45:14.440Z,1002.98
2018-11-06T04:46:14.480Z,1003.07
2018-11-06T04:47:14.424Z,1003.11
2018-11-06T04:48:14.407Z,1003.08
2018-11-06T04:49:14.398Z,1003.16
2018-11-06T04:50:14.408Z,1003.07
2018-11-06T04:51:14.423Z,1003.07
2018-11-06T04:52:14.358Z,1003.09
2018-11-06T04:53:14.377Z,1003.13
2018-11-06T04:54:14.334Z,1003.07
2018-11-06T04:55:14.324Z,1003.16
2018-11-06T04:56:14.310Z,1003.08
2018-11-06T04:57:14.328Z,1003.04
2018-11-06T04:58:14.334Z,1003.07
2018-11-06T04:59:14.277Z,1003.03
2018-11-06T05:00:14.268Z,1003.01
2018-11-06T05:01:14.259Z,1003.04
2018-11-06T05:02:14.348Z,1002.97
2018-11-06T05:03:14.282Z,1002.98
2018-11-06T05:04:14.224Z,1003.07
2018-11-06T05:05:14.232Z,1003.04
2018-11-06T05:06:14.207Z,1003.09
2018-11-06T05:07:14.246Z,1003.07
2018-11-06T05:08:14.214Z,1003.06
2018-11-06T05:09:14.191Z,1003.04
2018-11-06T05:10:14.165Z,1003.06
2018-11-06T05:11:14.189Z,1003.01
2018-11-06T05:12:14.134Z,1003.03
2018-11-06T05:13:14.153Z,1003.00
2018-11-06T05:14:14.174Z,1003.01
2018-11-06T05:15:14.104Z,1003.06
2018-11-06T05:16:14.093Z,1003.03
2018-11-06T05:17:14.097Z,1003.04
2018-11-06T05:18:14.069Z,1003.06
2018-11-06T05:19:14.112Z,1003.08
2018-11-06T05:20:14.049Z,1003.07
2018-11-06T05:21:14.104Z,1003.13
2018-11-06T05:22:14.034Z,1003.08
2018-11-06T05:23:14.059Z,1003.09
2018-11-06T05:24:14.048Z,1003.08
2018-11-06T05:25:14.076Z,1003.03
2018-11-06T05:26:13.992Z,1002.96
2018-11-06T05:27:14.088Z,1002.99
2018-11-06T05:28:13.971Z,1002.97
2018-11-06T05:29:13.962Z,1002.96
2018-11-06T05:30:13.988Z,1002.96
2018-11-06T05:31:13.928Z,1002.91
2018-11-06T05:32:13.921Z,1002.89
2018-11-06T05:33:13.912Z,1002.90
2018-11-06T05:34:13.941Z,1002.86
2018-11-06T05:35:13.897Z,1002.88
2018-11-06T05:36:13.873Z,1002.87
2018-11-06T05:37:13.944Z,1002.86
2018-11-06T05:38:13.864Z,1002.88
2018-11-06T05:39:14.030Z,1002.80
2018-11-06T05:40:13.836Z,1002.75
2018-11-06T05:41:13.829Z,1002.77
2018-11-06T05:42:13.805Z,1002.71
2018-11-06T05:43:13.840Z,1002.74
2018-11-06T05:44:13.786Z,1002.72
2018-11-06T05:45:13.790Z,1002.77
2018-11-06T05:46:13.810Z,1002.76
2018-11-06T05:47:13.754Z,1002.81
2018-11-06T05:48:13.778Z,1002.82
2018-11-06T05:49:13.733Z,1002.79
2018-11-06T05:50:13.755Z,1002.80
2018-11-06T05:51:13.725Z,1002.81
2018-11-06T05:52:13.703Z,1002.79
2018-11-06T05:53:13.884Z,1002.78
2018-11-06T05:54:13.679Z,1002.81
2018-11-06T05:55:13.665Z,1002.79
2018-11-06T05:56:13.655Z,1002.78
2018-11-06T05:57:13.683Z,1002.91
2018-11-06T05:58:13.632Z,1002.87
2018-11-06T05:59:13.650Z,1002.86
2018-11-06T06:00:13.610Z,1002.95
2018-11-06T06:01:13.706Z,1002.87
2018-11-06T06:02:13.601Z,1002.96
2018-11-06T06:03:13.605Z,1002.85
2018-11-06T06:04:13.603Z,1002.87
2018-11-06T06:05:13.564Z,1002.90
2018-11-06T06:06:13.571Z,1002.94
2018-11-06T06:07:13.565Z,1002.98
2018-11-06T06:08:13.530Z,1003.10
2018-11-06T06:09:13.512Z,1003.14
2018-11-06T06:10:13.503Z,1003.13
2018-11-06T06:11:13.523Z,1003.17
2018-11-06T06:12:13.517Z,1003.24
2018-11-06T06:13:13.475Z,1003.20
2018-11-06T06:14:13.472Z,1003.24
2018-11-06T06:15:13.449Z,1003.26
2018-11-06T06:16:13.443Z,1003.22
2018-11-06T06:17:13.612Z,1003.21
2018-11-06T06:18:13.413Z,1003.23
2018-11-06T06:19:13.437Z,1003.29
2018-11-06T06:20:13.398Z,1003.26
2018-11-06T06:21:13.383Z,1003.26
2018-11-06T06:22:13.370Z,1003.30
2018-11-06T06:23:13.369Z,1003.28
2018-11-06T06:24:13.382Z,1003.30
2018-11-06T06:25:13.348Z,1003.26
2018-11-06T06:26:13.361Z,1003.33
2018-11-06T06:27:13.315Z,1003.36
2018-11-06T06:28:13.322Z,1003.36
2018-11-06T06:29:13.343Z,1003.39
2018-11-06T06:30:13.303Z,1003.42
2018-11-06T06:31:13.274Z,1003.41
2018-11-06T06:32:13.261Z,1003.41
2018-11-06T06:33:13.359Z,1003.38
2018-11-06T06:34:13.245Z,1003.38
2018-11-06T06:35:13.326Z,1003.41
2018-11-06T06:36:13.233Z,1003.46
2018-11-06T06:37:13.207Z,1003.44
2018-11-06T06:38:13.242Z,1003.43
2018-11-06T06:39:13.185Z,1003.47
2018-11-06T06:40:13.264Z,1003.46
2018-11-06T06:41:13.196Z,1003.42
2018-11-06T06:42:13.155Z,1003.50
2018-11-06T06:43:13.149Z,1003.46
2018-11-06T06:44:13.128Z,1003.40
2018-11-06T06:45:13.146Z,1003.40
2018-11-06T06:46:13.162Z,1003.39
2018-11-06T06:47:13.108Z,1003.40
2018-11-06T06:48:13.091Z,1003.44
2018-11-06T06:49:13.073Z,1003.47
2018-11-06T06:50:13.091Z,1003.53
2018-11-06T06:51:13.051Z,1003.47
2018-11-06T06:52:13.041Z,1003.40
2018-11-06T06:53:13.029Z,1003.52
2018-11-06T06:54:13.100Z,1003.51
2018-11-06T06:55:13.152Z,1003.49
2018-11-06T06:56:12.990Z,1003.51
2018-11-06T06:57:13.061Z,1003.51
2018-11-06T06:58:12.973Z,1003.48
2018-11-06T06:59:12.967Z,1003.49
2018-11-06T07:00:12.999Z,1003.48
2018-11-06T07:01:12.979Z,1003.55
2018-11-06T07:02:12.929Z,1003.52
2018-11-06T07:03:12.920Z,1003.56
2018-11-06T07:04:12.936Z,1003.52
2018-11-06T07:05:12.921Z,1003.56
2018-11-06T07:06:12.885Z,1003.55
2018-11-06T07:07:12.896Z,1003.60
2018-11-06T07:08:12.907Z,1003.62
2018-11-06T07:09:12.849Z,1003.65
2018-11-06T07:10:12.850Z,1003.72
2018-11-06T07:11:12.893Z,1003.71
2018-11-06T07:12:12.852Z,1003.75
2018-11-06T07:13:12.877Z,1003.73
2018-11-06T07:14:12.801Z,1003.78
2018-11-06T07:15:12.795Z,1003.78
2018-11-06T07:16:12.808Z,1003.82
2018-11-06T07:17:12.758Z,1003.85
2018-11-06T07:18:12.761Z,1003.82
2018-11-06T07:19:12.737Z,1003.86
2018-11-06T07:20:12.728Z,1003.82
2018-11-06T07:21:12.750Z,1003.84
2018-11-06T07:22:12.710Z,1003.86
2018-11-06T07:23:12.702Z,1003.84
2018-11-06T07:24:12.683Z,1003.87
2018-11-06T07:25:12.719Z,1003.87
2018-11-06T07:26:12.664Z,1003.88
2018-11-06T07:27:12.660Z,1003.92
2018-11-06T07:28:12.652Z,1003.93
2018-11-06T07:29:13.453Z,1003.87
2018-11-06T07:30:12.652Z,1003.89
2018-11-06T07:31:12.607Z,1003.92
2018-11-06T07:32:12.601Z,1003.95
2018-11-06T07:33:12.633Z,1003.94
2018-11-06T07:34:12.574Z,1003.97
2018-11-06T07:35:12.686Z,1004.05
2018-11-06T07:36:12.563Z,1004.08
2018-11-06T07:37:12.619Z,1004.12
2018-11-06T07:38:12.570Z,1004.14
2018-11-06T07:39:12.520Z,1004.15
2018-11-06T07:40:12.521Z,1004.12
2018-11-06T07:41:12.571Z,1004.13
2018-11-06T07:42:12.487Z,1004.21
2018-11-06T07:43:12.524Z,1004.16
2018-11-06T07:44:12.486Z,1004.18
2018-11-06T07:45:12.483Z,1004.26
2018-11-06T07:46:12.467Z,1004.29
2018-11-06T07:47:12.433Z,1004.42
2018-11-06T07:48:12.451Z,1004.34
2018-11-06T07:49:12.447Z,1004.39
2018-11-06T07:50:12.410Z,1004.43
2018-11-06T07:51:12.384Z,1004.38
2018-11-06T07:52:12.374Z,1004.37
2018-11-06T07:53:12.467Z,1004.32
2018-11-06T07:54:12.355Z,1004.33
2018-11-06T07:55:12.345Z,1004.33
2018-11-06T07:56:12.445Z,1004.33
2018-11-06T07:57:12.344Z,1004.34
2018-11-06T07:58:12.356Z,1004.41
2018-11-06T07:59:12.339Z,1004.41
2018-11-06T08:00:12.290Z,1004.41
2018-11-06T08:01:12.278Z,1004.36
2018-11-06T08:02:12.260Z,1004.36
2018-11-06T08:03:12.257Z,1004.34
2018-11-06T08:04:12.300Z,1004.24
2018-11-06T08:05:12.278Z,1004.27
2018-11-06T08:06:12.296Z,1004.25
2018-11-06T08:07:12.213Z,1004.27
2018-11-06T08:08:12.207Z,1004.25
2018-11-06T08:09:12.202Z,1004.23
2018-11-06T08:10:12.223Z,1004.26
2018-11-06T08:11:12.200Z,1004.26
2018-11-06T08:12:12.156Z,1004.32
2018-11-06T08:13:12.165Z,1004.29
2018-11-06T08:14:12.138Z,1004.32
2018-11-06T08:15:12.252Z,1004.23
2018-11-06T08:16:12.148Z,1004.27
2018-11-06T08:17:12.101Z,1004.28
2018-11-06T08:18:12.117Z,1004.20
2018-11-06T08:19:12.076Z,1004.23
2018-11-06T08:20:12.066Z,1004.21
2018-11-06T08:21:12.087Z,1004.23
2018-11-06T08:22:12.057Z,1004.31
2018-11-06T08:23:12.032Z,1004.20
2018-11-06T08:24:12.045Z,1004.27
2018-11-06T08:25:12.008Z,1004.32
2018-11-06T08:26:12.004Z,1004.27
2018-11-06T08:27:11.997Z,1004.29
2018-11-06T08:28:12.017Z,1004.23
2018-11-06T08:29:11.969Z,1004.17
2018-11-06T08:30:12.029Z,1004.22
2018-11-06T08:31:12.309Z,1004.19
2018-11-06T08:32:12.323Z,1004.19
2018-11-06T08:33:11.999Z,1004.20
2018-11-06T08:34:11.976Z,1004.20
2018-11-06T08:35:11.910Z,1004.22
2018-11-06T08:36:11.887Z,1004.20
2018-11-06T08:37:12.024Z,1004.22
2018-11-06T08:38:11.887Z,1004.17
2018-11-06T08:39:11.886Z,1004.12
2018-11-06T08:40:11.846Z,1004.14
2018-11-06T08:41:11.847Z,1004.17
2018-11-06T08:42:11.899Z,1004.18
2018-11-06T08:43:11.852Z,1004.18
2018-11-06T08:44:11.802Z,1004.17
2018-11-06T08:45:11.806Z,1004.22
2018-11-06T08:46:11.799Z,1004.18
2018-11-06T08:47:11.772Z,1004.18
2018-11-06T08:48:11.794Z,1004.06
2018-11-06T08:49:11.820Z,1004.09
2018-11-06T08:50:11.764Z,1004.13
2018-11-06T08:51:11.728Z,1004.11
2018-11-06T08:52:11.742Z,1004.07
2018-11-06T08:53:11.700Z,1004.16
2018-11-06T08:54:11.731Z,1004.13
2018-11-06T08:55:11.690Z,1004.14
2018-11-06T08:56:11.670Z,1004.09
2018-11-06T08:57:11.672Z,1004.06
2018-11-06T08:58:11.648Z,1004.10
2018-11-06T08:59:11.687Z,1004.07
2018-11-06T09:00:11.626Z,1004.05
2018-11-06T09:01:11.614Z,1004.11
2018-11-06T09:02:11.634Z,1004.08
2018-11-06T09:03:11.598Z,1004.02
2018-11-06T09:04:11.620Z,1004.03
2018-11-06T09:05:11.632Z,1004.04
2018-11-06T09:06:11.560Z,1004.08
2018-11-06T09:07:11.549Z,1004.05
2018-11-06T09:08:11.550Z,1004.01
2018-11-06T09:09:11.569Z,1003.96
2018-11-06T09:10:11.510Z,1003.95
2018-11-06T09:11:11.513Z,1003.94
2018-11-06T09:12:11.490Z,1003.88
2018-11-06T09:13:11.493Z,1003.91
2018-11-06T09:14:11.503Z,1003.87
2018-11-06T09:15:11.462Z,1003.87
2018-11-06T09:16:11.449Z,1003.90
2018-11-06T09:17:11.531Z,1003.93
2018-11-06T09:18:11.457Z,1003.91
2018-11-06T09:19:11.425Z,1003.95
2018-11-06T09:20:11.407Z,1003.87
2018-11-06T09:21:11.390Z,1003.93
2018-11-06T09:22:11.420Z,1003.91
2018-11-06T09:23:11.367Z,1003.92
2018-11-06T09:24:11.383Z,1003.96
2018-11-06T09:25:11.353Z,1003.95
2018-11-06T09:26:11.348Z,1004.01
2018-11-06T09:27:11.329Z,1003.98
2018-11-06T09:28:11.312Z,1004.01
2018-11-06T09:29:11.422Z,1003.97
2018-11-06T09:30:11.290Z,1003.94
2018-11-06T09:31:11.289Z,1003.97
2018-11-06T09:32:11.285Z,1004.02
2018-11-06T09:33:11.290Z,1003.96
2018-11-06T09:34:11.296Z,1004.02
2018-11-06T09:35:11.292Z,1003.99
2018-11-06T09:36:11.227Z,1003.98
2018-11-06T09:37:11.249Z,1004.02
2018-11-06T09:38:11.207Z,1003.94
2018-11-06T09:39:11.238Z,1003.97
2018-11-06T09:40:11.184Z,1003.96
2018-11-06T09:41:11.215Z,1003.97
2018-11-06T09:42:11.162Z,1003.98
2018-11-06T09:43:11.170Z,1004.00
2018-11-06T09:44:11.168Z,1003.98
2018-11-06T09:45:11.246Z,1003.97
2018-11-06T09:46:11.118Z,1004.00
2018-11-06T09:47:11.111Z,1003.97
2018-11-06T09:48:11.139Z,1004.04
2018-11-06T09:49:11.114Z,1003.97
2018-11-06T09:50:11.067Z,1004.04
2018-11-06T09:51:11.068Z,1004.11
2018-11-06T09:52:11.057Z,1003.99
2018-11-06T09:53:11.081Z,1003.98
2018-11-06T09:54:11.021Z,1003.99
2018-11-06T09:55:11.024Z,1004.02
2018-11-06T09:56:11.037Z,1004.01
2018-11-06T09:57:10.992Z,1003.99
2018-11-06T09:58:10.978Z,1003.96
2018-11-06T09:59:10.981Z,1003.95
2018-11-06T10:00:11.048Z,1003.94
2018-11-06T10:01:10.941Z,1003.94
2018-11-06T10:02:10.945Z,1004.00
2018-11-06T10:03:10.928Z,1003.94
2018-11-06T10:04:10.942Z,1003.98
2018-11-06T10:05:10.902Z,1003.98
2018-11-06T10:06:11.034Z,1004.01
2018-11-06T10:07:11.303Z,1004.00
2018-11-06T10:08:10.897Z,1003.97
2018-11-06T10:09:11.019Z,1003.94
2018-11-06T10:10:10.854Z,1003.95
2018-11-06T10:11:10.863Z,1003.92
2018-11-06T10:12:10.878Z,1003.95
2018-11-06T10:13:10.811Z,1003.94
2018-11-06T10:14:10.803Z,1004.00
2018-11-06T10:15:10.829Z,1003.93
2018-11-06T10:16:10.779Z,1003.94
2018-11-06T10:17:10.773Z,1003.84
2018-11-06T10:18:10.763Z,1003.85
2018-11-06T10:19:10.776Z,1003.87
2018-11-06T10:20:10.733Z,1003.79
2018-11-06T10:21:10.795Z,1003.79
2018-11-06T10:22:10.750Z,1003.71
2018-11-06T10:23:10.697Z,1003.69
2018-11-06T10:24:10.694Z,1003.63
2018-11-06T10:25:10.676Z,1003.65
2018-11-06T10:26:10.682Z,1003.61
2018-11-06T10:27:10.700Z,1003.64
2018-11-06T10:28:10.758Z,1003.60
2018-11-06T10:29:10.632Z,1003.56
2018-11-06T10:30:10.623Z,1003.68
2018-11-06T10:31:10.610Z,1003.66
2018-11-06T10:32:10.634Z,1003.66
2018-11-06T10:33:10.634Z,1003.69
2018-11-06T10:34:10.580Z,1003.70
2018-11-06T10:35:10.596Z,1003.68
2018-11-06T10:36:10.555Z,1003.74
2018-11-06T10:37:10.565Z,1003.75
2018-11-06T10:38:10.675Z,1003.77
2018-11-06T10:39:10.573Z,1003.75
2018-11-06T10:40:10.505Z,1003.72
2018-11-06T10:41:10.507Z,1003.78
2018-11-06T10:42:10.486Z,1003.70
2018-11-06T10:43:10.482Z,1003.72
2018-11-06T10:44:10.550Z,1003.70
2018-11-06T10:45:10.464Z,1003.72
2018-11-06T10:46:10.452Z,1003.67
2018-11-06T10:47:10.433Z,1003.65
2018-11-06T10:48:10.460Z,1003.66
2018-11-06T10:49:10.416Z,1003.69
2018-11-06T10:50:10.405Z,1003.68
2018-11-06T10:51:10.390Z,1003.67
2018-11-06T10:52:10.407Z,1003.63
2018-11-06T10:53:10.406Z,1003.65
2018-11-06T10:54:10.398Z,1003.63
2018-11-06T10:55:10.345Z,1003.62
2018-11-06T10:56:10.349Z,1003.62
2018-11-06T10:57:10.349Z,1003.58
2018-11-06T10:58:10.399Z,1003.54
2018-11-06T10:59:10.334Z,1003.54
2018-11-06T11:00:10.345Z,1003.54
2018-11-06T11:01:10.286Z,1003.48
2018-11-06T11:02:10.304Z,1003.47
2018-11-06T11:03:10.265Z,1003.50
2018-11-06T11:04:10.286Z,1003.42
2018-11-06T11:05:10.403Z,1003.44
2018-11-06T11:06:10.221Z,1003.42
2018-11-06T11:07:10.217Z,1003.43
2018-11-06T11:08:10.208Z,1003.34
2018-11-06T11:09:10.191Z,1003.30
2018-11-06T11:10:10.215Z,1003.25
2018-11-06T11:11:10.171Z,1003.28
2018-11-06T11:12:10.160Z,1003.23
2018-11-06T11:13:10.151Z,1003.16
2018-11-06T11:14:10.177Z,1003.13
2018-11-06T11:15:10.122Z,1003.11
2018-11-06T11:16:10.115Z,1003.10
2018-11-06T11:17:10.140Z,1003.16
2018-11-06T11:18:10.096Z,1003.09
2018-11-06T11:19:10.083Z,1003.14
2018-11-06T11:20:10.128Z,1003.12
2018-11-06T11:21:10.075Z,1003.10
2018-11-06T11:22:10.097Z,1003.14
2018-11-06T11:23:10.036Z,1003.13
2018-11-06T11:24:10.042Z,1003.08
2018-11-06T11:25:10.013Z,1003.08
2018-11-06T11:26:10.133Z,1003.01
2018-11-06T11:27:09.993Z,1003.03
2018-11-06T11:28:10.002Z,1002.95
2018-11-06T11:29:09.966Z,1003.01
2018-11-06T11:30:09.965Z,1002.98
2018-11-06T11:31:09.980Z,1002.96
2018-11-06T11:32:09.935Z,1003.04
2018-11-06T11:33:09.968Z,1003.02
2018-11-06T11:34:09.912Z,1003.01
2018-11-06T11:35:09.959Z,1003.03
2018-11-06T11:36:09.899Z,1003.03
2018-11-06T11:37:09.883Z,1002.96
2018-11-06T11:38:09.876Z,1002.97
2018-11-06T11:39:09.858Z,1002.94
2018-11-06T11:40:09.888Z,1002.98
2018-11-06T11:41:09.835Z,1002.94
2018-11-06T11:42:09.826Z,1002.97
2018-11-06T11:43:09.816Z,1002.95
2018-11-06T11:44:09.809Z,1003.00
2018-11-06T11:45:09.867Z,1002.97
2018-11-06T11:46:09.780Z,1002.89
2018-11-06T11:47:09.768Z,1002.92
2018-11-06T11:48:09.841Z,1002.92
2018-11-06T11:49:09.746Z,1002.96
2018-11-06T11:50:09.766Z,1002.90
2018-11-06T11:51:09.727Z,1002.89
2018-11-06T11:52:09.761Z,1002.81
2018-11-06T11:53:09.706Z,1002.77
2018-11-06T11:54:09.694Z,1002.73
2018-11-06T11:55:09.678Z,1002.75
2018-11-06T11:56:09.673Z,1002.74
2018-11-06T11:57:09.701Z,1002.72
2018-11-06T11:58:09.726Z,1002.67
2018-11-06T11:59:09.639Z,1002.68
2018-11-06T12:00:09.736Z,1002.74
2018-11-06T12:01:09.614Z,1002.72
2018-11-06T12:02:09.669Z,1002.72
2018-11-06T12:03:09.614Z,1002.73
2018-11-06T12:04:09.628Z,1002.73
2018-11-06T12:05:09.577Z,1002.60